Terminal Aerodrome Forecast
Issued by NWS

Home | Current Version | Previous Version | Text Only | Print | Product List | Glossary Off
Versions: 1 2 3 4 5 6 7 8 9 10 11 12 13 14 15 16 17

000
FTUS43 KFGF 250520
TAFBJI
TAF
KBJI 250520Z 2506/2606 07004KT P6SM -DZ SCT007 BKN040
     FM250700 32007KT P6SM OVC007
     FM251400 35009KT P6SM OVC005
     FM251600 35010KT P6SM OVC008
     FM260000 02012G21KT P6SM OVC008=

USA.gov is the U.S. government's official web portal to all federal, state and local government web resources and services.